sensor_id;sensor_type;location;lat;lon;timestamp;pressure;altitude;pressure_sealevel;temperature;humidity
55761;BME280;41679;51.440;-2.012;2022-09-03T00:01:32;99776.72;;;15.40;100.00
55761;BME280;41679;51.440;-2.012;2022-09-03T00:04:13;99769.47;;;15.29;100.00
55761;BME280;41679;51.440;-2.012;2022-09-03T00:06:48;99760.41;;;15.23;100.00
55761;BME280;41679;51.440;-2.012;2022-09-03T00:09:27;99743.44;;;15.21;100.00
55761;BME280;41679;51.440;-2.012;2022-09-03T00:12:05;99750.97;;;15.14;100.00
55761;BME280;41679;51.440;-2.012;2022-09-03T00:17:16;99737.16;;;15.04;100.00
55761;BME280;41679;51.440;-2.012;2022-09-03T00:20:02;99734.63;;;14.97;100.00
55761;BME280;41679;51.440;-2.012;2022-09-03T00:22:50;99732.97;;;14.96;100.00
55761;BME280;41679;51.440;-2.012;2022-09-03T00:25:22;99734.03;;;14.95;100.00
55761;BME280;41679;51.440;-2.012;2022-09-03T00:27:50;99727.50;;;14.96;100.00
55761;BME280;41679;51.440;-2.012;2022-09-03T00:30:19;99725.53;;;14.92;100.00
55761;BME280;41679;51.440;-2.012;2022-09-03T00:32:48;99728.19;;;14.86;100.00
55761;BME280;41679;51.440;-2.012;2022-09-03T00:35:30;99720.44;;;14.78;100.00
55761;BME280;41679;51.440;-2.012;2022-09-03T00:37:56;99725.81;;;14.73;100.00
55761;BME280;41679;51.440;-2.012;2022-09-03T00:49:26;99718.44;;;14.57;100.00
55761;BME280;41679;51.440;-2.012;2022-09-03T00:52:26;99709.00;;;14.48;100.00
55761;BME280;41679;51.440;-2.012;2022-09-03T00:55:24;99712.69;;;14.41;100.00
55761;BME280;41679;51.440;-2.012;2022-09-03T00:57:57;99709.41;;;14.39;100.00
55761;BME280;41679;51.440;-2.012;2022-09-03T01:00:28;99715.59;;;14.35;100.00
55761;BME280;41679;51.440;-2.012;2022-09-03T01:06:16;99709.56;;;14.33;100.00
55761;BME280;41679;51.440;-2.012;2022-09-03T01:09:02;99712.78;;;14.30;100.00
55761;BME280;41679;51.440;-2.012;2022-09-03T01:14:27;99701.47;;;14.21;100.00
55761;BME280;41679;51.440;-2.012;2022-09-03T01:17:09;99692.22;;;14.22;100.00
55761;BME280;41679;51.440;-2.012;2022-09-03T01:26:00;99700.44;;;14.10;100.00
55761;BME280;41679;51.440;-2.012;2022-09-03T01:31:30;99696.47;;;14.01;100.00
55761;BME280;41679;51.440;-2.012;2022-09-03T01:34:07;99694.84;;;14.00;100.00
55761;BME280;41679;51.440;-2.012;2022-09-03T01:36:44;99688.31;;;14.01;100.00
55761;BME280;41679;51.440;-2.012;2022-09-03T01:42:08;99680.75;;;13.91;100.00
55761;BME280;41679;51.440;-2.012;2022-09-03T01:44:58;99680.94;;;13.85;100.00
55761;BME280;41679;51.440;-2.012;2022-09-03T01:50:31;99689.72;;;13.75;100.00
55761;BME280;41679;51.440;-2.012;2022-09-03T01:53:11;99695.78;;;13.77;100.00
55761;BME280;41679;51.440;-2.012;2022-09-03T01:58:34;99696.63;;;13.66;100.00
55761;BME280;41679;51.440;-2.012;2022-09-03T02:01:09;99694.06;;;13.59;100.00
55761;BME280;41679;51.440;-2.012;2022-09-03T02:03:38;99692.28;;;13.53;100.00
55761;BME280;41679;51.440;-2.012;2022-09-03T02:06:08;99700.38;;;13.48;100.00
55761;BME280;41679;51.440;-2.012;2022-09-03T02:08:34;99691.63;;;13.46;100.00
55761;BME280;41679;51.440;-2.012;2022-09-03T02:11:00;99692.78;;;13.50;100.00
55761;BME280;41679;51.440;-2.012;2022-09-03T02:15:57;99678.44;;;13.54;100.00
55761;BME280;41679;51.440;-2.012;2022-09-03T02:18:35;99686.38;;;13.56;100.00
55761;BME280;41679;51.440;-2.012;2022-09-03T02:21:01;99679.03;;;13.56;100.00
55761;BME280;41679;51.440;-2.012;2022-09-03T02:23:27;99687.19;;;13.56;100.00
55761;BME280;41679;51.440;-2.012;2022-09-03T02:25:58;99677.84;;;13.52;100.00
55761;BME280;41679;51.440;-2.012;2022-09-03T02:28:25;99666.41;;;13.50;100.00
55761;BME280;41679;51.440;-2.012;2022-09-03T02:30:52;99668.25;;;13.50;100.00
55761;BME280;41679;51.440;-2.012;2022-09-03T02:33:17;99662.81;;;13.50;100.00
55761;BME280;41679;51.440;-2.012;2022-09-03T02:35:43;99666.28;;;13.45;100.00
55761;BME280;41679;51.440;-2.012;2022-09-03T02:38:21;99672.78;;;13.44;100.00
55761;BME280;41679;51.440;-2.012;2022-09-03T02:40:47;99676.81;;;13.42;100.00
55761;BME280;41679;51.440;-2.012;2022-09-03T02:43:23;99667.72;;;13.36;100.00
55761;BME280;41679;51.440;-2.012;2022-09-03T02:45:54;99664.09;;;13.30;100.00
55761;BME280;41679;51.440;-2.012;2022-09-03T02:48:22;99663.25;;;13.30;100.00
55761;BME280;41679;51.440;-2.012;2022-09-03T02:50:48;99665.63;;;13.26;100.00
55761;BME280;41679;51.440;-2.012;2022-09-03T02:53:15;99666.66;;;13.25;100.00
55761;BME280;41679;51.440;-2.012;2022-09-03T02:55:41;99659.31;;;13.26;100.00
55761;BME280;41679;51.440;-2.012;2022-09-03T02:58:06;99661.22;;;13.25;100.00
55761;BME280;41679;51.440;-2.012;2022-09-03T03:00:34;99658.97;;;13.22;100.00
55761;BME280;41679;51.440;-2.012;2022-09-03T03:03:01;99668.69;;;13.18;100.00
55761;BME280;41679;51.440;-2.012;2022-09-03T03:05:53;99664.81;;;13.14;100.00
55761;BME280;41679;51.440;-2.012;2022-09-03T03:08:26;99663.63;;;13.10;100.00
55761;BME280;41679;51.440;-2.012;2022-09-03T03:10:52;99663.72;;;13.15;100.00
55761;BME280;41679;51.440;-2.012;2022-09-03T03:13:20;99667.53;;;13.14;100.00
55761;BME280;41679;51.440;-2.012;2022-09-03T03:15:45;99659.25;;;13.09;100.00
55761;BME280;41679;51.440;-2.012;2022-09-03T03:18:12;99655.13;;;13.06;100.00
55761;BME280;41679;51.440;-2.012;2022-09-03T03:20:38;99649.91;;;13.05;100.00
55761;BME280;41679;51.440;-2.012;2022-09-03T03:23:05;99663.75;;;13.03;100.00
55761;BME280;41679;51.440;-2.012;2022-09-03T03:25:35;99659.03;;;12.99;100.00
55761;BME280;41679;51.440;-2.012;2022-09-03T03:28:01;99662.81;;;12.98;100.00
55761;BME280;41679;51.440;-2.012;2022-09-03T03:30:28;99661.28;;;13.02;100.00
55761;BME280;41679;51.440;-2.012;2022-09-03T03:32:54;99662.81;;;12.98;100.00
55761;BME280;41679;51.440;-2.012;2022-09-03T03:35:19;99662.69;;;12.92;100.00
55761;BME280;41679;51.440;-2.012;2022-09-03T03:37:45;99658.81;;;12.88;100.00
55761;BME280;41679;51.440;-2.012;2022-09-03T03:40:11;99663.88;;;12.85;100.00
55761;BME280;41679;51.440;-2.012;2022-09-03T03:42:36;99658.09;;;12.81;100.00
55761;BME280;41679;51.440;-2.012;2022-09-03T03:45:03;99658.94;;;12.82;100.00
55761;BME280;41679;51.440;-2.012;2022-09-03T03:47:28;99659.41;;;12.79;100.00
55761;BME280;41679;51.440;-2.012;2022-09-03T03:49:57;99662.34;;;12.77;100.00
55761;BME280;41679;51.440;-2.012;2022-09-03T03:52:24;99657.16;;;12.76;100.00
55761;BME280;41679;51.440;-2.012;2022-09-03T03:54:50;99660.13;;;12.74;100.00
55761;BME280;41679;51.440;-2.012;2022-09-03T03:57:16;99659.28;;;12.74;100.00
55761;BME280;41679;51.440;-2.012;2022-09-03T03:59:43;99660.81;;;12.69;100.00
55761;BME280;41679;51.440;-2.012;2022-09-03T04:02:08;99661.31;;;12.66;100.00
55761;BME280;41679;51.440;-2.012;2022-09-03T04:04:34;99659.06;;;12.63;100.00
55761;BME280;41679;51.440;-2.012;2022-09-03T04:06:59;99656.34;;;12.63;100.00
55761;BME280;41679;51.440;-2.012;2022-09-03T04:09:24;99657.53;;;12.67;100.00
55761;BME280;41679;51.440;-2.012;2022-09-03T04:11:50;99649.13;;;12.69;100.00
55761;BME280;41679;51.440;-2.012;2022-09-03T04:14:15;99640.47;;;12.72;100.00
55761;BME280;41679;51.440;-2.012;2022-09-03T04:16:42;99641.44;;;12.66;100.00
55761;BME280;41679;51.440;-2.012;2022-09-03T04:19:07;99646.75;;;12.61;100.00
55761;BME280;41679;51.440;-2.012;2022-09-03T04:21:33;99644.88;;;12.61;100.00
55761;BME280;41679;51.440;-2.012;2022-09-03T04:23:58;99646.88;;;12.66;100.00
55761;BME280;41679;51.440;-2.012;2022-09-03T04:26:28;99638.97;;;12.64;100.00
55761;BME280;41679;51.440;-2.012;2022-09-03T04:28:58;99629.63;;;12.60;100.00
55761;BME280;41679;51.440;-2.012;2022-09-03T04:31:26;99623.72;;;12.63;100.00
55761;BME280;41679;51.440;-2.012;2022-09-03T04:33:51;99627.13;;;12.70;100.00
55761;BME280;41679;51.440;-2.012;2022-09-03T04:36:19;99621.22;;;12.74;100.00
55761;BME280;41679;51.440;-2.012;2022-09-03T04:38:47;99629.59;;;12.72;100.00
55761;BME280;41679;51.440;-2.012;2022-09-03T04:41:14;99628.28;;;12.75;100.00
55761;BME280;41679;51.440;-2.012;2022-09-03T04:43:40;99619.19;;;12.69;100.00
55761;BME280;41679;51.440;-2.012;2022-09-03T04:46:08;99624.06;;;12.67;100.00
55761;BME280;41679;51.440;-2.012;2022-09-03T04:48:35;99627.03;;;12.65;100.00
55761;BME280;41679;51.440;-2.012;2022-09-03T04:51:14;99624.53;;;12.64;100.00
55761;BME280;41679;51.440;-2.012;2022-09-03T04:53:42;99630.81;;;12.64;100.00
55761;BME280;41679;51.440;-2.012;2022-09-03T04:56:13;99632.31;;;12.72;100.00
55761;BME280;41679;51.440;-2.012;2022-09-03T04:58:39;99630.31;;;12.79;100.00
55761;BME280;41679;51.440;-2.012;2022-09-03T05:01:11;99632.88;;;12.98;100.00
55761;BME280;41679;51.440;-2.012;2022-09-03T05:03:38;99624.69;;;13.09;100.00
55761;BME280;41679;51.440;-2.012;2022-09-03T05:06:04;99622.78;;;13.22;100.00
55761;BME280;41679;51.440;-2.012;2022-09-03T05:08:31;99615.41;;;13.34;100.00
55761;BME280;41679;51.440;-2.012;2022-09-03T05:10:59;99610.16;;;13.44;100.00
55761;BME280;41679;51.440;-2.012;2022-09-03T05:13:26;99616.88;;;13.53;100.00
55761;BME280;41679;51.440;-2.012;2022-09-03T05:15:58;99605.81;;;13.60;100.00
55761;BME280;41679;51.440;-2.012;2022-09-03T05:18:23;99611.53;;;13.59;100.00
55761;BME280;41679;51.440;-2.012;2022-09-03T05:20:59;99602.38;;;13.65;100.00
55761;BME280;41679;51.440;-2.012;2022-09-03T05:23:29;99613.13;;;13.71;100.00
55761;BME280;41679;51.440;-2.012;2022-09-03T05:26:00;99609.09;;;13.74;100.00
55761;BME280;41679;51.440;-2.012;2022-09-03T05:28:28;99610.72;;;13.75;100.00
55761;BME280;41679;51.440;-2.012;2022-09-03T05:31:06;99605.28;;;13.75;100.00
55761;BME280;41679;51.440;-2.012;2022-09-03T05:33:36;99608.31;;;13.78;100.00
55761;BME280;41679;51.440;-2.012;2022-09-03T05:36:07;99604.03;;;13.83;100.00
55761;BME280;41679;51.440;-2.012;2022-09-03T05:38:33;99604.72;;;13.90;100.00
55761;BME280;41679;51.440;-2.012;2022-09-03T05:41:03;99607.53;;;13.95;100.00
55761;BME280;41679;51.440;-2.012;2022-09-03T05:43:30;99598.59;;;13.99;100.00
55761;BME280;41679;51.440;-2.012;2022-09-03T05:46:00;99605.94;;;13.99;100.00
55761;BME280;41679;51.440;-2.012;2022-09-03T05:48:26;99597.78;;;13.99;100.00
55761;BME280;41679;51.440;-2.012;2022-09-03T05:51:00;99606.53;;;14.01;100.00
55761;BME280;41679;51.440;-2.012;2022-09-03T05:53:27;99604.03;;;13.99;100.00
55761;BME280;41679;51.440;-2.012;2022-09-03T05:56:00;99612.47;;;13.98;100.00
55761;BME280;41679;51.440;-2.012;2022-09-03T05:58:33;99614.13;;;13.99;100.00
55761;BME280;41679;51.440;-2.012;2022-09-03T06:01:01;99607.34;;;14.01;100.00
55761;BME280;41679;51.440;-2.012;2022-09-03T06:03:33;99613.38;;;14.04;100.00
55761;BME280;41679;51.440;-2.012;2022-09-03T06:05:58;99606.84;;;14.05;100.00
55761;BME280;41679;51.440;-2.012;2022-09-03T06:08:24;99612.06;;;14.06;100.00
55761;BME280;41679;51.440;-2.012;2022-09-03T06:10:56;99609.94;;;14.08;100.00
55761;BME280;41679;51.440;-2.012;2022-09-03T06:13:22;99612.97;;;14.12;100.00
55761;BME280;41679;51.440;-2.012;2022-09-03T06:15:48;99622.06;;;14.17;100.00
55761;BME280;41679;51.440;-2.012;2022-09-03T06:18:13;99614.53;;;14.25;100.00
55761;BME280;41679;51.440;-2.012;2022-09-03T06:20:38;99618.16;;;14.30;100.00
55761;BME280;41679;51.440;-2.012;2022-09-03T06:23:04;99622.38;;;14.38;100.00
55761;BME280;41679;51.440;-2.012;2022-09-03T06:25:29;99619.88;;;14.36;100.00
55761;BME280;41679;51.440;-2.012;2022-09-03T06:27:55;99619.72;;;14.43;100.00
55761;BME280;41679;51.440;-2.012;2022-09-03T06:30:21;99616.84;;;14.50;100.00
55761;BME280;41679;51.440;-2.012;2022-09-03T06:32:48;99618.97;;;14.64;100.00
55761;BME280;41679;51.440;-2.012;2022-09-03T06:35:14;99624.00;;;14.73;100.00
55761;BME280;41679;51.440;-2.012;2022-09-03T06:37:41;99621.75;;;14.86;100.00
55761;BME280;41679;51.440;-2.012;2022-09-03T06:40:07;99624.41;;;15.03;100.00
55761;BME280;41679;51.440;-2.012;2022-09-03T06:42:37;99631.69;;;15.20;100.00
55761;BME280;41679;51.440;-2.012;2022-09-03T06:45:02;99632.09;;;15.28;100.00
55761;BME280;41679;51.440;-2.012;2022-09-03T06:47:28;99651.59;;;15.37;100.00
55761;BME280;41679;51.440;-2.012;2022-09-03T06:49:53;99648.97;;;15.47;100.00
55761;BME280;41679;51.440;-2.012;2022-09-03T06:52:19;99654.03;;;15.61;100.00
55761;BME280;41679;51.440;-2.012;2022-09-03T06:54:44;99671.06;;;15.68;100.00
55761;BME280;41679;51.440;-2.012;2022-09-03T06:57:09;99669.34;;;15.84;100.00
55761;BME280;41679;51.440;-2.012;2022-09-03T06:59:34;99666.03;;;15.82;100.00
55761;BME280;41679;51.440;-2.012;2022-09-03T07:02:00;99674.09;;;15.93;100.00
55761;BME280;41679;51.440;-2.012;2022-09-03T07:04:27;99674.50;;;16.07;100.00
55761;BME280;41679;51.440;-2.012;2022-09-03T07:06:53;99681.91;;;16.12;100.00
55761;BME280;41679;51.440;-2.012;2022-09-03T07:09:18;99691.09;;;16.28;100.00
55761;BME280;41679;51.440;-2.012;2022-09-03T07:11:43;99691.25;;;16.48;100.00
55761;BME280;41679;51.440;-2.012;2022-09-03T07:14:14;99692.66;;;16.51;100.00
55761;BME280;41679;51.440;-2.012;2022-09-03T07:16:39;99694.13;;;16.63;100.00
55761;BME280;41679;51.440;-2.012;2022-09-03T07:19:06;99695.75;;;16.65;100.00
55761;BME280;41679;51.440;-2.012;2022-09-03T07:21:34;99704.69;;;16.82;100.00
55761;BME280;41679;51.440;-2.012;2022-09-03T07:24:04;99697.41;;;17.03;100.00
55761;BME280;41679;51.440;-2.012;2022-09-03T07:26:32;99699.94;;;17.20;100.00
55761;BME280;41679;51.440;-2.012;2022-09-03T07:28:58;99705.00;;;17.43;100.00
55761;BME280;41679;51.440;-2.012;2022-09-03T07:31:33;99700.38;;;17.59;100.00
55761;BME280;41679;51.440;-2.012;2022-09-03T07:34:07;99711.72;;;17.78;100.00
55761;BME280;41679;51.440;-2.012;2022-09-03T07:36:37;99715.91;;;18.11;100.00
55761;BME280;41679;51.440;-2.012;2022-09-03T07:39:06;99706.88;;;18.31;100.00
55761;BME280;41679;51.440;-2.012;2022-09-03T07:41:31;99709.06;;;18.24;100.00
55761;BME280;41679;51.440;-2.012;2022-09-03T07:43:57;99717.28;;;18.14;100.00
55761;BME280;41679;51.440;-2.012;2022-09-03T07:46:25;99712.66;;;18.14;100.00
55761;BME280;41679;51.440;-2.012;2022-09-03T07:48:52;99720.31;;;18.12;100.00
55761;BME280;41679;51.440;-2.012;2022-09-03T07:51:21;99724.44;;;18.20;100.00
55761;BME280;41679;51.440;-2.012;2022-09-03T07:53:51;99722.53;;;18.26;100.00
55761;BME280;41679;51.440;-2.012;2022-09-03T07:56:17;99729.66;;;18.27;100.00
55761;BME280;41679;51.440;-2.012;2022-09-03T07:58:42;99735.16;;;18.32;100.00
55761;BME280;41679;51.440;-2.012;2022-09-03T08:01:09;99735.16;;;18.47;100.00
55761;BME280;41679;51.440;-2.012;2022-09-03T08:03:35;99736.53;;;18.50;100.00
55761;BME280;41679;51.440;-2.012;2022-09-03T08:06:03;99737.09;;;18.42;100.00
55761;BME280;41679;51.440;-2.012;2022-09-03T08:08:29;99741.75;;;18.46;100.00
55761;BME280;41679;51.440;-2.012;2022-09-03T08:11:11;99737.91;;;18.47;100.00
55761;BME280;41679;51.440;-2.012;2022-09-03T08:13:41;99742.28;;;18.48;100.00
55761;BME280;41679;51.440;-2.012;2022-09-03T08:16:10;99740.91;;;18.51;100.00
55761;BME280;41679;51.440;-2.012;2022-09-03T08:18:36;99742.28;;;18.69;100.00
55761;BME280;41679;51.440;-2.012;2022-09-03T08:21:07;99735.44;;;18.97;100.00
55761;BME280;41679;51.440;-2.012;2022-09-03T08:23:38;99741.16;;;19.21;100.00
55761;BME280;41679;51.440;-2.012;2022-09-03T08:26:05;99746.34;;;19.38;100.00
55761;BME280;41679;51.440;-2.012;2022-09-03T08:28:31;99753.22;;;19.40;100.00
55761;BME280;41679;51.440;-2.012;2022-09-03T08:31:08;99747.94;;;19.49;100.00
55761;BME280;41679;51.440;-2.012;2022-09-03T08:33:37;99757.34;;;19.38;100.00
55761;BME280;41679;51.440;-2.012;2022-09-03T08:36:05;99750.16;;;19.47;100.00
55761;BME280;41679;51.440;-2.012;2022-09-03T08:38:32;99752.06;;;19.57;100.00
55761;BME280;41679;51.440;-2.012;2022-09-03T08:41:06;99752.28;;;19.71;100.00
55761;BME280;41679;51.440;-2.012;2022-09-03T08:46:33;99753.59;;;19.88;100.00
55761;BME280;41679;51.440;-2.012;2022-09-03T08:49:02;99759.38;;;19.87;100.00
55761;BME280;41679;51.440;-2.012;2022-09-03T08:51:29;99751.97;;;19.82;100.00
55761;BME280;41679;51.440;-2.012;2022-09-03T08:53:57;99760.47;;;19.86;100.00
55761;BME280;41679;51.440;-2.012;2022-09-03T08:56:27;99754.94;;;19.96;100.00
55761;BME280;41679;51.440;-2.012;2022-09-03T08:58:54;99772.84;;;19.88;100.00
55761;BME280;41679;51.440;-2.012;2022-09-03T09:07:31;99783.66;;;19.64;100.00
55761;BME280;41679;51.440;-2.012;2022-09-03T09:09:46;99785.03;;;19.62;100.00
55761;BME280;41679;51.440;-2.012;2022-09-03T09:18:04;99783.59;;;19.85;100.00
55761;BME280;41679;51.440;-2.012;2022-09-03T09:21:16;99779.44;;;19.93;100.00
55761;BME280;41679;51.440;-2.012;2022-09-03T09:23:46;99790.44;;;19.98;100.00
55761;BME280;41679;51.440;-2.012;2022-09-03T09:26:24;99790.09;;;20.04;100.00
55761;BME280;41679;51.440;-2.012;2022-09-03T09:29:06;99792.56;;;20.11;100.00
55761;BME280;41679;51.440;-2.012;2022-09-03T09:31:35;99790.31;;;20.18;100.00
55761;BME280;41679;51.440;-2.012;2022-09-03T09:34:06;99801.09;;;20.04;100.00
55761;BME280;41679;51.440;-2.012;2022-09-03T09:36:40;99795.56;;;20.09;100.00
55761;BME280;41679;51.440;-2.012;2022-09-03T09:39:10;99798.31;;;20.15;100.00
55761;BME280;41679;51.440;-2.012;2022-09-03T09:41:36;99795.13;;;20.42;100.00
55761;BME280;41679;51.440;-2.012;2022-09-03T09:44:02;99792.59;;;20.50;100.00
55761;BME280;41679;51.440;-2.012;2022-09-03T09:46:35;99792.28;;;20.62;100.00
55761;BME280;41679;51.440;-2.012;2022-09-03T09:49:02;99796.28;;;20.75;100.00
55761;BME280;41679;51.440;-2.012;2022-09-03T09:51:34;99802.66;;;21.34;100.00
55761;BME280;41679;51.440;-2.012;2022-09-03T09:54:17;99806.91;;;21.50;100.00
55761;BME280;41679;51.440;-2.012;2022-09-03T09:56:44;99815.72;;;21.52;100.00
55761;BME280;41679;51.440;-2.012;2022-09-03T09:59:12;99809.34;;;21.28;100.00
55761;BME280;41679;51.440;-2.012;2022-09-03T10:01:40;99808.22;;;21.29;100.00
55761;BME280;41679;51.440;-2.012;2022-09-03T10:04:21;99810.25;;;21.18;100.00
55761;BME280;41679;51.440;-2.012;2022-09-03T10:06:55;99811.88;;;20.90;100.00
55761;BME280;41679;51.440;-2.012;2022-09-03T10:09:28;99801.88;;;20.99;100.00
55761;BME280;41679;51.440;-2.012;2022-09-03T10:14:44;99800.31;;;21.22;100.00
55761;BME280;41679;51.440;-2.012;2022-09-03T10:17:34;99801.44;;;21.45;100.00
55761;BME280;41679;51.440;-2.012;2022-09-03T10:23:22;99804.09;;;21.79;100.00
55761;BME280;41679;51.440;-2.012;2022-09-03T10:26:03;99804.59;;;22.30;100.00
55761;BME280;41679;51.440;-2.012;2022-09-03T10:28:33;99812.13;;;22.62;100.00
55761;BME280;41679;51.440;-2.012;2022-09-03T10:36:38;99820.34;;;22.48;100.00
55761;BME280;41679;51.440;-2.012;2022-09-03T10:39:34;99823.03;;;22.10;100.00
55761;BME280;41679;51.440;-2.012;2022-09-03T10:45:29;99815.19;;;22.41;100.00
55761;BME280;41679;51.440;-2.012;2022-09-03T10:56:24;99828.59;;;22.86;100.00
55761;BME280;41679;51.440;-2.012;2022-09-03T10:59:03;99830.94;;;22.98;100.00
55761;BME280;41679;51.440;-2.012;2022-09-03T11:04:40;99839.50;;;23.15;100.00
55761;BME280;41679;51.440;-2.012;2022-09-03T11:07:12;99846.44;;;22.93;100.00
55761;BME280;41679;51.440;-2.012;2022-09-03T11:09:45;99845.47;;;23.03;100.00
55761;BME280;41679;51.440;-2.012;2022-09-03T11:12:21;99849.53;;;23.25;100.00
55761;BME280;41679;51.440;-2.012;2022-09-03T11:17:39;99853.25;;;23.01;100.00
55761;BME280;41679;51.440;-2.012;2022-09-03T11:22:34;99838.94;;;22.18;100.00
55761;BME280;41679;51.440;-2.012;2022-09-03T11:25:04;99834.06;;;22.10;100.00
55761;BME280;41679;51.440;-2.012;2022-09-03T11:30:10;99828.16;;;22.41;100.00
55761;BME280;41679;51.440;-2.012;2022-09-03T11:35:23;99841.50;;;22.90;100.00
55761;BME280;41679;51.440;-2.012;2022-09-03T11:37:56;99836.34;;;23.35;100.00
55761;BME280;41679;51.440;-2.012;2022-09-03T11:40:31;99842.19;;;23.34;100.00
55761;BME280;41679;51.440;-2.012;2022-09-03T11:43:05;99843.69;;;23.12;100.00
55761;BME280;41679;51.440;-2.012;2022-09-03T11:47:57;99843.94;;;22.97;100.00
55761;BME280;41679;51.440;-2.012;2022-09-03T11:50:28;99835.41;;;22.75;100.00
55761;BME280;41679;51.440;-2.012;2022-09-03T11:53:07;99835.03;;;22.62;100.00
55761;BME280;41679;51.440;-2.012;2022-09-03T11:55:51;99841.59;;;22.28;100.00
55761;BME280;41679;51.440;-2.012;2022-09-03T11:58:30;99835.50;;;22.07;100.00
55761;BME280;41679;51.440;-2.012;2022-09-03T12:01:01;99831.56;;;22.14;100.00
55761;BME280;41679;51.440;-2.012;2022-09-03T12:03:41;99828.16;;;22.22;100.00
55761;BME280;41679;51.440;-2.012;2022-09-03T12:12:18;99836.69;;;22.63;100.00
55761;BME280;41679;51.440;-2.012;2022-09-03T12:17:57;99823.72;;;22.45;100.00
55761;BME280;41679;51.440;-2.012;2022-09-03T12:20:45;99829.16;;;22.50;100.00
55761;BME280;41679;51.440;-2.012;2022-09-03T12:23:13;99833.75;;;22.55;100.00
55761;BME280;41679;51.440;-2.012;2022-09-03T12:25:45;99835.03;;;22.43;100.00
55761;BME280;41679;51.440;-2.012;2022-09-03T12:28:16;99835.72;;;22.54;100.00
55761;BME280;41679;51.440;-2.012;2022-09-03T12:30:43;99841.38;;;22.63;100.00
55761;BME280;41679;51.440;-2.012;2022-09-03T12:33:09;99840.31;;;22.97;100.00
55761;BME280;41679;51.440;-2.012;2022-09-03T12:35:38;99846.44;;;23.12;100.00
55761;BME280;41679;51.440;-2.012;2022-09-03T12:38:03;99844.59;;;23.08;100.00
55761;BME280;41679;51.440;-2.012;2022-09-03T12:40:30;99841.72;;;23.59;100.00
55761;BME280;41679;51.440;-2.012;2022-09-03T12:43:11;99845.47;;;23.36;100.00
55761;BME280;41679;51.440;-2.012;2022-09-03T12:45:42;99853.63;;;23.13;100.00
55761;BME280;41679;51.440;-2.012;2022-09-03T12:48:13;99849.88;;;23.37;100.00
55761;BME280;41679;51.440;-2.012;2022-09-03T12:50:43;99857.75;;;22.97;100.00
55761;BME280;41679;51.440;-2.012;2022-09-03T12:53:12;99854.19;;;22.91;100.00
55761;BME280;41679;51.440;-2.012;2022-09-03T12:58:27;99862.25;;;22.55;100.00
55761;BME280;41679;51.440;-2.012;2022-09-03T13:03:30;99848.84;;;22.00;100.00
55761;BME280;41679;51.440;-2.012;2022-09-03T13:06:01;99847.53;;;21.69;100.00
55761;BME280;41679;51.440;-2.012;2022-09-03T13:08:31;99847.56;;;21.39;100.00
55761;BME280;41679;51.440;-2.012;2022-09-03T13:11:00;99838.91;;;21.22;100.00
55761;BME280;41679;51.440;-2.012;2022-09-03T13:13:31;99823.78;;;20.80;100.00
55761;BME280;41679;51.440;-2.012;2022-09-03T13:25:26;99779.84;;;19.55;100.00
55761;BME280;41679;51.440;-2.012;2022-09-03T13:30:51;99793.81;;;19.74;100.00
55761;BME280;41679;51.440;-2.012;2022-09-03T13:33:22;99806.38;;;20.01;100.00
55761;BME280;41679;51.440;-2.012;2022-09-03T13:35:58;99811.75;;;20.26;100.00
55761;BME280;41679;51.440;-2.012;2022-09-03T13:41:15;99833.78;;;21.39;100.00
55761;BME280;41679;51.440;-2.012;2022-09-03T13:43:57;99845.50;;;22.03;100.00
55761;BME280;41679;51.440;-2.012;2022-09-03T13:46:47;99855.59;;;22.56;100.00
